Time;durP1;ratioP1;P1;durP2;ratioP2;P2;SDS_P1;SDS_P2;PMS_P1;PMS_P2;Temp;Humidity;BMP_temperature;BMP_pressure;BME280_temperature;BME280_humidity;BME280_pressure;Samples;Min_cycle;Max_cycle;Signal;HPM_P1;HPM_P2
2022/01/18 00:01:46;;;;;;;15.80;3.22;;;;;;;15.11;49.12;103524.59;4957347;28;20452;-63
2022/01/18 00:04:11;;;;;;;11.27;3.88;;;;;;;15.05;49.67;103524.06;4956965;28;20040;-63
2022/01/18 00:06:40;;;;;;;12.57;3.97;;;;;;;15.03;50.01;103529.56;4974299;28;20097;-63
2022/01/18 00:09:05;;;;;;;11.57;3.15;;;;;;;14.99;50.39;103533.41;4974267;28;20026;-62
2022/01/18 00:11:39;;;;;;;18.00;3.67;;;;;;;14.93;48.92;103530.22;4974145;28;20062;-62
2022/01/18 00:14:12;;;;;;;15.05;4.38;;;;;;;14.90;48.58;103542.06;4958140;28;20117;-62
2022/01/18 00:16:49;;;;;;;18.73;3.17;;;;;;;14.87;49.48;103541.38;4974662;28;20026;-62
2022/01/18 00:19:15;;;;;;;10.57;3.55;;;;;;;14.82;49.01;103538.09;4957649;28;20065;-62
2022/01/18 00:24:14;;;;;;;23.00;4.03;;;;;;;14.77;50.00;103540.19;4975161;28;20050;-62
2022/01/18 00:26:40;;;;;;;15.40;3.13;;;;;;;14.69;49.63;103543.31;4973758;28;20065;-62
2022/01/18 00:29:09;;;;;;;14.55;3.80;;;;;;;14.70;49.99;103563.06;4974802;28;20529;-62
2022/01/18 00:34:27;;;;;;;11.27;2.97;;;;;;;14.62;49.94;103557.25;4975072;28;20101;-62
2022/01/18 00:36:58;;;;;;;16.60;3.75;;;;;;;14.57;48.52;103557.53;4974645;28;20027;-62
2022/01/18 00:39:24;;;;;;;14.18;3.40;;;;;;;14.52;48.90;103552.38;4957226;28;20390;-62
2022/01/18 00:41:49;;;;;;;18.85;4.18;;;;;;;14.50;49.69;103557.00;4967911;28;20037;-62
2022/01/18 00:44:15;;;;;;;11.13;3.83;;;;;;;14.50;49.17;103570.50;4976726;28;20030;-62
2022/01/18 00:46:41;;;;;;;7.97;3.22;;;;;;;14.47;50.39;103565.25;4976950;28;20026;-63
2022/01/18 00:49:07;;;;;;;16.77;4.35;;;;;;;14.45;48.77;103561.78;4994501;28;20018;-62
2022/01/18 00:51:37;;;;;;;17.90;4.18;;;;;;;14.44;49.83;103565.44;4960596;28;20027;-62
2022/01/18 00:54:03;;;;;;;16.23;4.20;;;;;;;14.44;50.18;103568.13;4987276;28;20045;-62
2022/01/18 00:56:31;;;;;;;16.27;3.35;;;;;;;14.44;49.55;103559.16;4978536;28;20037;-62
2022/01/18 00:58:57;;;;;;;25.13;4.50;;;;;;;14.46;49.37;103563.50;4978394;28;20101;-62
2022/01/18 01:01:28;;;;;;;17.33;3.50;;;;;;;14.47;49.64;103569.78;4978571;28;20118;-62
2022/01/18 01:03:58;;;;;;;15.93;4.00;;;;;;;14.44;49.99;103565.44;4977213;28;20540;-62
2022/01/18 01:06:23;;;;;;;16.15;3.17;;;;;;;14.47;49.92;103575.19;4977470;28;20034;-62
2022/01/18 01:08:50;;;;;;;11.35;3.58;;;;;;;14.47;49.39;103576.06;4980443;28;20480;-62
2022/01/18 01:11:15;;;;;;;27.25;4.40;;;;;;;14.50;48.83;103567.78;4980675;28;20022;-62
2022/01/18 01:13:44;;;;;;;18.70;4.38;;;;;;;14.51;49.34;103561.44;4997995;28;20030;-62
2022/01/18 01:35:13;;;;;;;17.10;5.53;;;;;;;14.58;49.79;103587.09;4977647;28;20616;-62
2022/01/18 01:43:35;;;;;;;15.05;4.25;;;;;;;14.61;49.57;103583.34;4918153;29;20039;-62
2022/01/18 01:46:02;;;;;;;23.05;5.07;;;;;;;14.59;50.47;103574.50;4955894;28;20545;-62
2022/01/18 01:48:27;;;;;;;20.67;4.43;;;;;;;14.60;49.79;103573.50;4976726;28;20041;-62
2022/01/18 01:51:01;;;;;;;20.55;5.07;;;;;;;14.63;50.82;103576.03;4977715;28;20027;-61
2022/01/18 01:53:26;;;;;;;16.27;4.90;;;;;;;14.62;50.00;103578.84;4964387;28;20064;-62
2022/01/18 01:55:52;;;;;;;21.90;5.55;;;;;;;14.65;50.13;103574.16;4997278;28;20042;-62
2022/01/18 01:58:22;;;;;;;31.42;4.72;;;;;;;14.67;50.08;103582.13;4979548;28;20076;-62
2022/01/18 02:00:52;;;;;;;29.00;5.07;;;;;;;14.67;49.50;103571.34;4979340;28;20034;-62
2022/01/18 02:03:18;;;;;;;19.52;5.05;;;;;;;14.68;50.77;103576.66;4979264;28;20117;-62
2022/01/18 02:05:43;;;;;;;13.13;5.68;;;;;;;14.69;50.11;103580.22;4978301;28;20502;-62
2022/01/18 02:08:09;;;;;;;26.25;6.15;;;;;;;14.69;50.04;103573.00;4996592;28;20097;-63
2022/01/18 02:10:35;;;;;;;18.25;5.15;;;;;;;14.69;50.24;103566.72;4996812;28;20030;-63
2022/01/18 02:13:02;;;;;;;19.33;5.90;;;;;;;14.70;49.06;103571.16;4996780;28;20041;-62
2022/01/18 02:15:27;;;;;;;16.98;4.88;;;;;;;14.65;49.39;103555.25;4996545;28;20019;-62
2022/01/18 02:23:23;;;;;;;22.05;4.97;;;;;;;14.65;50.54;103546.28;4981405;28;20157;-62
2022/01/18 02:25:48;;;;;;;21.92;5.43;;;;;;;14.69;50.02;103550.53;4996293;28;20054;-62
2022/01/18 02:28:14;;;;;;;22.95;5.80;;;;;;;14.69;49.43;103554.09;4996199;28;20022;-62
2022/01/18 02:30:39;;;;;;;25.08;7.05;;;;;;;14.69;50.03;103558.63;4978894;28;20030;-62
2022/01/18 02:33:05;;;;;;;18.75;5.57;;;;;;;14.70;49.35;103558.56;4996206;28;20019;-62
2022/01/18 02:35:35;;;;;;;26.38;6.05;;;;;;;14.72;49.66;103558.44;4996448;28;20042;-62
2022/01/18 02:38:01;;;;;;;21.30;6.20;;;;;;;14.68;50.09;103556.91;4978808;28;20054;-62
2022/01/18 02:40:26;;;;;;;25.38;5.32;;;;;;;14.71;50.61;103564.81;4996100;28;20109;-63
2022/01/18 02:42:59;;;;;;;30.08;5.78;;;;;;;14.68;49.72;103556.91;4996315;28;20042;-62
2022/01/18 02:45:25;;;;;;;15.68;5.05;;;;;;;14.71;50.56;103563.00;4996086;28;20031;-62
2022/01/18 02:47:51;;;;;;;19.90;5.20;;;;;;;14.71;50.61;103564.81;4996057;28;20030;-62
2022/01/18 02:50:18;;;;;;;15.30;5.95;;;;;;;14.70;49.81;103565.78;4996179;28;20102;-62
2022/01/18 02:52:43;;;;;;;21.05;6.20;;;;;;;14.71;50.56;103567.53;4978434;28;20022;-62
2022/01/18 02:55:09;;;;;;;26.60;6.13;;;;;;;14.68;49.47;103554.22;4995857;28;20120;-62
2022/01/18 02:57:42;;;;;;;15.50;5.18;;;;;;;14.71;49.42;103556.72;4978563;28;20034;-62
2022/01/18 03:00:30;;;;;;;17.27;6.18;;;;;;;14.69;50.46;103554.09;4996000;28;20496;-62
2022/01/18 03:03:15;;;;;;;21.42;6.05;;;;;;;14.70;50.59;103549.59;4995852;28;20023;-62
2022/01/18 03:05:42;;;;;;;26.73;6.70;;;;;;;14.68;49.66;103547.00;4981028;28;20029;-62
2022/01/18 03:08:10;;;;;;;18.00;6.10;;;;;;;14.70;50.64;103549.59;4995582;28;20034;-62
2022/01/18 03:10:36;;;;;;;20.92;6.32;;;;;;;14.68;49.30;103551.50;4995607;28;20607;-62
2022/01/18 03:13:01;;;;;;;26.10;6.07;;;;;;;14.69;50.67;103555.94;4995658;28;20380;-62
2022/01/18 03:15:27;;;;;;;20.60;6.45;;;;;;;14.68;49.58;103554.22;4995355;28;20026;-62
2022/01/18 03:17:52;;;;;;;23.23;6.38;;;;;;;14.69;50.68;103555.94;4995193;28;20057;-62
2022/01/18 03:20:19;;;;;;;21.38;5.97;;;;;;;14.69;50.73;103553.22;4977840;28;20026;-62
2022/01/18 03:22:47;;;;;;;17.65;6.43;;;;;;;14.70;50.91;103571.16;4995645;28;20026;-62
2022/01/18 03:28:05;;;;;;;15.27;5.93;;;;;;;14.68;49.96;103567.69;4995703;28;20034;-62
2022/01/18 03:30:37;;;;;;;27.88;6.13;;;;;;;14.67;50.21;103574.03;4995283;28;20025;-62
2022/01/18 03:33:04;;;;;;;24.48;6.15;;;;;;;14.66;50.05;103573.16;4977969;28;20038;-62
2022/01/18 03:35:30;;;;;;;20.52;6.90;;;;;;;14.63;50.29;103575.19;4995117;28;20388;-61
2022/01/18 03:37:56;;;;;;;27.45;6.70;;;;;;;14.64;50.73;103576.91;4961758;28;20033;-62
2022/01/18 03:40:21;;;;;;;19.33;6.55;;;;;;;14.65;49.62;103570.56;4995047;28;20038;-62
2022/01/18 03:42:47;;;;;;;20.63;6.88;;;;;;;14.65;49.19;103584.06;4977585;28;20488;-62
2022/01/18 03:45:15;;;;;;;21.95;5.97;;;;;;;14.64;50.68;103567.00;4994987;28;20399;-63
2022/01/18 03:47:41;;;;;;;23.77;5.22;;;;;;;14.61;49.55;103560.91;4994894;28;20049;-62
2022/01/18 03:50:08;;;;;;;19.13;6.60;;;;;;;14.64;50.30;103566.13;4961429;28;20506;-62
2022/01/18 03:52:34;;;;;;;20.05;6.80;;;;;;;14.64;50.30;103572.41;4994783;28;20014;-62
2022/01/18 03:54:59;;;;;;;21.42;5.80;;;;;;;14.61;50.38;103566.28;4994948;28;20026;-62
2022/01/18 03:57:24;;;;;;;19.38;5.80;;;;;;;14.61;50.28;103566.28;4994974;28;20018;-63
2022/01/18 03:59:50;;;;;;;16.35;5.20;;;;;;;14.64;50.78;103574.22;4977344;28;20444;-62
2022/01/18 04:02:16;;;;;;;20.25;6.68;;;;;;;14.64;49.55;103571.53;4994863;28;20105;-62
2022/01/18 04:04:41;;;;;;;18.50;7.18;;;;;;;14.63;49.60;103567.09;4994373;28;20061;-62
2022/01/18 04:07:07;;;;;;;20.00;6.32;;;;;;;14.64;49.91;103574.22;4977244;28;20459;-63
2022/01/18 04:09:32;;;;;;;15.00;6.80;;;;;;;14.58;49.26;103562.81;4977115;28;20056;-62
2022/01/18 04:11:58;;;;;;;19.55;5.97;;;;;;;14.64;49.82;103576.91;4976834;28;20472;-62
2022/01/18 04:14:24;;;;;;;17.23;5.78;;;;;;;14.58;50.26;103573.63;4994457;28;20167;-62
2022/01/18 04:17:09;;;;;;;18.52;6.32;;;;;;;14.62;50.20;103586.94;4994548;28;20033;-62
2022/01/18 04:27:52;;;;;;;26.92;6.40;;;;;;;14.55;49.41;103589.09;4994624;28;20037;-62
2022/01/18 04:30:17;;;;;;;21.50;6.15;;;;;;;14.54;49.81;103593.63;4977679;28;20054;-62
2022/01/18 04:32:42;;;;;;;11.38;5.53;;;;;;;14.53;50.42;103593.72;4994281;28;20484;-63
2022/01/18 04:35:08;;;;;;;23.08;6.38;;;;;;;14.51;50.32;103593.81;4976534;28;20476;-62
2022/01/18 04:37:33;;;;;;;19.25;5.70;;;;;;;14.54;50.68;103596.31;4994352;28;20057;-62
2022/01/18 04:39:59;;;;;;;18.63;6.78;;;;;;;14.54;50.34;103593.63;4994130;28;20407;-63
2022/01/18 04:50:30;;;;;;;20.63;6.10;;;;;;;14.54;49.33;103588.22;4993791;28;20404;-62
2022/01/18 04:52:56;;;;;;;30.98;6.18;;;;;;;14.53;50.40;103586.50;4993988;28;20015;-62
2022/01/18 04:55:22;;;;;;;19.92;6.15;;;;;;;14.52;50.09;103583.88;4994451;28;20030;-61
2022/01/18 04:57:53;;;;;;;17.13;5.53;;;;;;;14.54;49.71;103584.69;4993967;28;20027;-62
2022/01/18 05:00:21;;;;;;;14.77;6.45;;;;;;;14.51;50.58;103583.03;4976827;28;20022;-62
2022/01/18 05:02:47;;;;;;;23.23;7.07;;;;;;;14.55;50.94;103594.50;4993846;28;20488;-62
2022/01/18 05:05:24;;;;;;;21.83;6.35;;;;;;;14.54;50.95;103599.00;4976926;28;20030;-62
2022/01/18 05:07:53;;;;;;;15.25;6.05;;;;;;;14.54;49.69;103601.72;4994040;28;20085;-62
2022/01/18 05:10:22;;;;;;;17.50;6.25;;;;;;;14.55;49.78;103606.16;4993915;28;20053;-62
2022/01/18 05:12:50;;;;;;;34.95;7.35;;;;;;;14.56;51.10;103602.50;4976644;28;20149;-62
2022/01/18 05:15:34;;;;;;;28.65;6.85;;;;;;;14.45;49.78;103583.38;4976432;28;20126;-62
2022/01/18 05:21:08;;;;;;;19.70;6.47;;;;;;;14.56;49.43;103605.22;4978538;28;20069;-62
2022/01/18 05:23:29;;;;;;;31.00;7.75;;;;;;;14.56;50.98;103596.25;4993744;28;20096;-62
2022/01/18 05:25:54;;;;;;;16.80;6.07;;;;;;;14.58;49.46;103603.28;4993821;28;20135;-62
2022/01/18 05:28:19;;;;;;;23.10;5.80;;;;;;;14.59;50.01;103606.88;4993715;28;20489;-62
2022/01/18 05:30:45;;;;;;;26.95;7.10;;;;;;;14.59;49.85;103601.47;4993762;28;20463;-62
2022/01/18 05:33:10;;;;;;;29.58;7.78;;;;;;;14.58;49.50;103611.38;4993693;28;20038;-62
2022/01/18 05:35:35;;;;;;;13.23;5.75;;;;;;;14.60;50.99;103602.34;4993515;28;20026;-62
2022/01/18 05:38:01;;;;;;;24.75;6.68;;;;;;;14.60;50.61;103613.13;4976315;28;20198;-63
2022/01/18 05:40:26;;;;;;;23.48;6.32;;;;;;;14.60;50.12;103608.59;4977380;28;20089;-63
2022/01/18 05:42:52;;;;;;;21.02;6.60;;;;;;;14.61;49.83;103609.47;4997236;28;20038;-62
2022/01/18 05:45:18;;;;;;;21.00;6.10;;;;;;;14.61;49.88;103601.38;4979788;28;20029;-62
2022/01/18 05:47:44;;;;;;;29.45;7.60;;;;;;;14.58;50.90;103605.09;4997248;28;20031;-61
2022/01/18 05:50:11;;;;;;;32.13;7.07;;;;;;;14.61;50.59;103607.63;4997371;28;20110;-62
2022/01/18 05:52:36;;;;;;;18.52;6.88;;;;;;;14.61;51.07;103609.47;4997053;28;20429;-62
2022/01/18 05:55:02;;;;;;;24.55;7.57;;;;;;;14.60;49.86;103613.13;4997284;28;20395;-63
2022/01/18 05:57:28;;;;;;;21.48;7.07;;;;;;;14.59;49.98;103617.66;4979494;28;20391;-63
2022/01/18 06:00:00;;;;;;;25.63;7.18;;;;;;;14.57;50.58;103614.19;4979738;28;20022;-62
2022/01/18 06:07:55;;;;;;;22.48;7.75;;;;;;;14.54;49.75;103625.97;4996880;28;20506;-62
2022/01/18 06:10:21;;;;;;;19.90;7.90;;;;;;;14.55;51.37;103632.25;4979197;28;20022;-62
2022/01/18 06:12:47;;;;;;;26.30;7.55;;;;;;;14.54;49.83;103623.28;4979400;28;20028;-63
2022/01/18 06:15:12;;;;;;;19.33;7.72;;;;;;;14.55;50.34;103627.75;4996751;28;20369;-62
2022/01/18 06:17:41;;;;;;;22.85;6.50;;;;;;;14.55;50.74;103633.13;4979448;28;20031;-62
2022/01/18 06:20:07;;;;;;;17.27;7.70;;;;;;;14.52;51.03;103622.50;4979599;28;20035;-62
2022/01/18 06:22:33;;;;;;;18.33;6.72;;;;;;;14.55;50.07;103626.88;4963021;28;20084;-62
2022/01/18 06:24:58;;;;;;;19.83;6.78;;;;;;;14.57;50.86;103635.75;4979013;28;20030;-63
2022/01/18 06:27:24;;;;;;;19.10;7.95;;;;;;;14.57;50.47;103630.38;4996552;28;20029;-62
2022/01/18 06:29:49;;;;;;;21.15;7.93;;;;;;;14.54;50.66;103620.59;4996517;28;20026;-62
2022/01/18 06:32:15;;;;;;;25.65;8.82;;;;;;;14.55;50.97;103622.34;4979137;28;20389;-63
2022/01/18 06:34:40;;;;;;;29.85;8.38;;;;;;;14.54;51.23;103625.13;4996218;28;20049;-63
2022/01/18 06:37:07;;;;;;;22.08;7.80;;;;;;;14.55;49.73;103633.13;4979064;28;20161;-62
2022/01/18 06:39:33;;;;;;;19.90;6.40;;;;;;;14.54;51.55;103625.13;4996074;28;20152;-63
2022/01/18 06:41:58;;;;;;;22.98;8.60;;;;;;;14.52;50.41;103627.91;4996111;28;20042;-63
2022/01/18 06:44:24;;;;;;;19.52;6.32;;;;;;;14.48;50.73;103620.97;4996398;28;20026;-63
2022/01/18 06:46:50;;;;;;;23.75;7.97;;;;;;;14.47;51.36;103621.91;4996358;28;20026;-63
2022/01/18 06:49:15;;;;;;;20.85;8.05;;;;;;;14.44;50.17;103616.69;4978944;28;20152;-63
2022/01/18 06:51:40;;;;;;;25.60;8.50;;;;;;;14.45;51.58;103621.13;4995475;28;20092;-63
2022/01/18 06:54:12;;;;;;;27.42;8.57;;;;;;;14.45;50.18;103629.22;4995789;28;20041;-63
2022/01/18 06:56:39;;;;;;;17.50;7.13;;;;;;;14.45;49.78;103631.91;4995932;28;20031;-62
2022/01/18 06:59:07;;;;;;;30.65;8.70;;;;;;;14.45;51.55;103629.22;4996158;28;20439;-62
2022/01/18 07:01:33;;;;;;;24.48;8.27;;;;;;;14.45;51.06;103634.63;4995977;28;20030;-63
2022/01/18 07:03:58;;;;;;;20.85;7.93;;;;;;;14.43;51.20;103628.41;4995675;28;20125;-63
2022/01/18 07:06:23;;;;;;;30.35;8.68;;;;;;;14.44;49.91;103624.78;4978139;28;20030;-63
2022/01/18 07:08:49;;;;;;;20.92;8.27;;;;;;;14.41;51.07;103624.06;4995786;28;20085;-63
2022/01/18 07:11:16;;;;;;;25.38;8.05;;;;;;;14.45;50.46;103631.03;4995717;28;20026;-62
2022/01/18 07:13:41;;;;;;;21.58;8.00;;;;;;;14.38;49.93;103619.72;4995953;28;20238;-63
2022/01/18 07:16:06;;;;;;;23.27;7.72;;;;;;;14.43;50.51;103630.28;4978307;28;20489;-62
2022/01/18 07:18:32;;;;;;;32.97;9.77;;;;;;;14.41;50.11;103630.34;4995761;28;20400;-62
2022/01/18 07:20:57;;;;;;;30.17;8.85;;;;;;;14.40;51.15;103631.31;4995721;28;20117;-63
2022/01/18 07:23:22;;;;;;;28.42;10.68;;;;;;;14.39;51.11;103637.66;4995592;28;20149;-63
2022/01/18 07:25:48;;;;;;;31.63;9.05;;;;;;;14.39;49.88;103637.66;4995658;28;20030;-63
2022/01/18 07:28:17;;;;;;;37.25;9.30;;;;;;;14.40;51.17;103627.75;4995347;28;20054;-63
2022/01/18 07:30:43;;;;;;;21.83;8.55;;;;;;;14.39;51.20;103629.56;4995322;28;20111;-63
2022/01/18 07:33:09;;;;;;;20.85;7.68;;;;;;;14.40;51.38;103634.00;4978126;28;20081;-62
2022/01/18 07:35:35;;;;;;;23.20;8.27;;;;;;;14.41;51.57;103641.13;4977885;28;20110;-62
2022/01/18 07:38:03;;;;;;;22.38;8.00;;;;;;;14.39;50.78;103637.66;4994856;28;20050;-63
2022/01/18 07:40:29;;;;;;;27.13;8.95;;;;;;;14.40;49.97;103635.81;4977805;28;20037;-62
2022/01/18 07:42:55;;;;;;;23.90;7.90;;;;;;;14.43;50.74;103650.00;4994748;28;20387;-63
2022/01/18 07:45:21;;;;;;;32.88;8.45;;;;;;;14.42;50.91;103642.88;4977371;28;20022;-62
2022/01/18 07:47:47;;;;;;;33.80;8.57;;;;;;;14.42;51.18;103642.88;4995030;28;20392;-62
2022/01/18 07:50:12;;;;;;;18.55;8.80;;;;;;;14.40;50.11;103644.78;4994778;28;20026;-62
2022/01/18 07:52:38;;;;;;;23.98;9.15;;;;;;;14.41;50.68;103651.03;4994638;28;20034;-62
2022/01/18 07:55:05;;;;;;;25.20;7.70;;;;;;;14.40;50.09;103642.09;4994723;28;20026;-62
2022/01/18 07:57:30;;;;;;;24.48;8.27;;;;;;;14.40;50.08;103646.63;4977327;28;20566;-63
2022/01/18 07:59:56;;;;;;;17.55;8.25;;;;;;;14.38;50.50;103643.97;4994580;28;20057;-62
2022/01/18 08:02:22;;;;;;;28.27;9.30;;;;;;;14.41;50.18;103668.09;4994636;28;20030;-62
2022/01/18 08:04:47;;;;;;;18.02;6.57;;;;;;;14.41;50.42;103657.31;4993580;28;20455;-63
2022/01/18 08:07:13;;;;;;;18.35;8.27;;;;;;;14.43;50.18;103658.06;4977127;28;20117;-62
2022/01/18 08:09:38;;;;;;;35.47;8.48;;;;;;;14.43;50.63;103652.69;4994804;28;20023;-63
2022/01/18 08:12:05;;;;;;;25.90;7.80;;;;;;;14.42;49.87;103650.97;4994451;28;20022;-63
2022/01/18 08:14:32;;;;;;;36.70;9.43;;;;;;;14.43;50.83;103651.84;4994387;28;20041;-62
2022/01/18 08:17:01;;;;;;;22.15;7.75;;;;;;;14.50;51.32;103661.31;4994770;28;20053;-62
2022/01/18 08:19:33;;;;;;;17.40;7.60;;;;;;;14.52;51.28;103659.41;4994237;28;20481;-62
2022/01/18 08:21:59;;;;;;;24.98;9.88;;;;;;;14.56;51.13;103655.59;4994106;28;20129;-62
2022/01/18 08:24:25;;;;;;;24.58;7.65;;;;;;;14.58;51.23;103653.66;4976929;28;20113;-63
2022/01/18 08:26:51;;;;;;;17.98;9.00;;;;;;;14.64;50.70;103657.84;4994169;28;20038;-63
2022/01/18 08:29:16;;;;;;;29.38;7.78;;;;;;;14.67;51.40;103655.84;4976832;28;20026;-62
2022/01/18 08:31:42;;;;;;;22.92;8.57;;;;;;;14.71;49.90;103665.53;4994345;28;20439;-62
2022/01/18 08:34:08;;;;;;;27.83;9.20;;;;;;;14.70;51.00;103657.50;4960860;28;20034;-63
2022/01/18 08:36:33;;;;;;;29.58;8.88;;;;;;;14.77;50.45;103653.53;4994295;28;20069;-62
2022/01/18 08:39:00;;;;;;;21.13;8.30;;;;;;;14.80;51.31;103647.91;4976812;28;20050;-63
2022/01/18 08:41:26;;;;;;;29.58;10.93;;;;;;;14.81;51.25;103647.84;4993944;28;20037;-62
2022/01/18 08:43:52;;;;;;;20.98;7.68;;;;;;;14.89;51.08;103658.19;4994481;28;20476;-62
2022/01/18 08:46:17;;;;;;;20.75;7.40;;;;;;;14.93;50.47;103654.38;4994316;28;20022;-63
2022/01/18 08:48:43;;;;;;;22.83;7.18;;;;;;;14.94;50.96;103648.88;4994320;28;20518;-62
2022/01/18 08:51:08;;;;;;;19.35;8.70;;;;;;;14.96;50.99;103655.06;4994267;28;20054;-62
2022/01/18 08:53:35;;;;;;;25.73;7.22;;;;;;;14.99;51.08;103662.13;4994147;28;20427;-62
2022/01/18 08:56:01;;;;;;;32.15;8.43;;;;;;;15.01;50.04;103646.72;4976928;28;20046;-62
2022/01/18 08:58:26;;;;;;;22.52;8.80;;;;;;;15.08;50.96;103653.47;4994452;28;20049;-63
2022/01/18 09:00:52;;;;;;;16.98;7.35;;;;;;;15.11;50.51;103647.91;4976784;28;20073;-62
2022/01/18 09:03:18;;;;;;;27.50;7.38;;;;;;;15.13;50.74;103646.00;4976882;28;20031;-62
2022/01/18 09:05:45;;;;;;;17.48;7.20;;;;;;;15.11;50.99;103653.31;4976691;28;20028;-62
2022/01/18 09:08:12;;;;;;;26.35;8.02;;;;;;;15.08;50.52;103648.06;4994219;28;20022;-62
2022/01/18 09:10:38;;;;;;;29.85;8.23;;;;;;;15.14;50.95;103653.13;4977144;28;20105;-62
2022/01/18 09:13:03;;;;;;;24.20;7.57;;;;;;;15.14;50.48;103645.03;4976331;28;20443;-62
2022/01/18 09:15:29;;;;;;;25.52;8.45;;;;;;;15.21;49.75;103659.94;4977782;28;20122;-62
2022/01/18 09:17:54;;;;;;;20.73;7.68;;;;;;;15.18;49.90;103654.69;4980536;28;20105;-63
2022/01/18 09:20:20;;;;;;;21.38;9.02;;;;;;;15.20;50.24;103658.16;4979951;28;20022;-62
2022/01/18 09:22:48;;;;;;;22.50;7.75;;;;;;;15.31;50.44;103655.72;4980337;28;20085;-62
2022/01/18 09:25:22;;;;;;;18.67;7.07;;;;;;;15.32;50.67;103657.47;4980383;28;20022;-62
2022/01/18 09:27:48;;;;;;;26.02;7.35;;;;;;;15.34;50.80;103660.94;4964191;28;20118;-63
2022/01/18 09:30:14;;;;;;;26.13;7.78;;;;;;;15.43;50.27;103668.50;4980183;28;20105;-62
2022/01/18 09:32:40;;;;;;;16.33;7.53;;;;;;;15.46;50.26;103676.47;4980514;28;20022;-63
2022/01/18 09:35:06;;;;;;;28.55;9.13;;;;;;;15.44;50.62;103667.53;4997236;28;20487;-63
2022/01/18 09:37:32;;;;;;;24.67;7.68;;;;;;;15.50;50.57;103686.09;4997569;28;20399;-63
2022/01/18 09:39:58;;;;;;;22.23;8.57;;;;;;;15.53;50.37;103675.13;4997667;28;20105;-63
2022/01/18 09:42:32;;;;;;;16.38;7.65;;;;;;;15.55;49.97;103673.19;4997591;28;20027;-63
2022/01/18 09:44:59;;;;;;;24.80;8.27;;;;;;;15.64;49.47;103675.34;4997418;28;20023;-62
2022/01/18 09:47:24;;;;;;;23.35;7.60;;;;;;;15.69;49.37;103670.53;4980123;28;20029;-62
2022/01/18 09:49:50;;;;;;;22.63;7.63;;;;;;;15.71;49.87;103676.72;4997344;28;20492;-63
2022/01/18 09:52:15;;;;;;;18.48;8.25;;;;;;;15.81;50.47;103673.44;4979605;28;20056;-62
2022/01/18 09:54:41;;;;;;;17.73;7.47;;;;;;;15.86;49.40;103663.22;4997426;28;20081;-62
2022/01/18 09:57:06;;;;;;;18.50;6.47;;;;;;;15.97;49.58;103668.88;4979672;28;20026;-62
2022/01/18 09:59:32;;;;;;;23.45;8.90;;;;;;;16.04;50.29;103668.38;4979851;28;20030;-63
2022/01/18 10:02:00;;;;;;;19.88;7.20;;;;;;;16.15;49.28;103670.41;4996643;28;20424;-63
2022/01/18 10:04:31;;;;;;;20.70;8.32;;;;;;;16.21;49.32;103670.03;4996978;28;20053;-63
2022/01/18 10:06:57;;;;;;;18.73;6.90;;;;;;;16.24;49.06;103676.13;4996881;28;20026;-63
2022/01/18 10:09:24;;;;;;;25.27;9.10;;;;;;;16.27;49.00;103670.50;4979679;28;20026;-63
2022/01/18 10:12:07;;;;;;;23.75;8.40;;;;;;;16.31;50.20;103665.78;4979394;28;20049;-63
2022/01/18 10:14:33;;;;;;;19.63;7.80;;;;;;;16.32;50.37;103664.81;4963507;28;20507;-63
2022/01/18 10:16:59;;;;;;;28.85;9.40;;;;;;;16.39;48.97;103673.44;4979437;28;20451;-63
2022/01/18 10:19:37;;;;;;;23.23;9.30;;;;;;;16.44;49.37;103672.16;4996757;28;20105;-63
2022/01/18 10:22:11;;;;;;;21.73;8.07;;;;;;;16.50;49.61;103677.16;4996633;28;20031;-63
2022/01/18 10:24:37;;;;;;;17.02;7.70;;;;;;;16.51;49.08;103678.91;4996493;28;20030;-62
2022/01/18 10:27:03;;;;;;;32.55;12.25;;;;;;;16.56;50.21;103666.00;4995419;28;20029;-64
2022/01/18 10:29:31;;;;;;;32.90;11.35;;;;;;;16.63;50.25;103670.06;4996815;28;20029;-63
2022/01/18 10:32:02;;;;;;;26.65;9.32;;;;;;;16.71;49.25;103665.00;4979058;28;20421;-62
2022/01/18 10:37:02;;;;;;;25.50;9.68;;;;;;;16.84;49.56;103665.94;4979756;28;20034;-63
2022/01/18 10:39:32;;;;;;;22.38;9.27;;;;;;;16.87;49.89;103668.44;4996310;28;20530;-63
2022/01/18 10:41:58;;;;;;;26.17;8.10;;;;;;;16.89;49.85;103674.63;4979020;28;20034;-63
2022/01/18 10:44:24;;;;;;;20.42;8.73;;;;;;;16.91;48.91;103666.41;4996534;28;20022;-63
2022/01/18 10:46:55;;;;;;;21.60;9.52;;;;;;;16.96;48.54;103666.09;4996161;28;20072;-63
2022/01/18 10:49:29;;;;;;;24.30;7.32;;;;;;;16.99;48.80;103657.78;4996275;28;20101;-63
2022/01/18 10:52:04;;;;;;;21.73;7.72;;;;;;;17.00;48.62;103660.38;4978724;28;20045;-63
2022/01/18 10:54:43;;;;;;;17.95;7.10;;;;;;;16.86;48.67;103630.66;4995912;28;20037;-63
2022/01/18 10:57:11;;;;;;;18.83;6.40;;;;;;;17.00;49.70;103659.53;4996127;28;20080;-63
2022/01/18 10:59:38;;;;;;;21.15;6.95;;;;;;;17.00;49.04;103646.81;4996047;28;20081;-63
2022/01/18 11:02:19;;;;;;;35.33;13.05;;;;;;;17.04;49.19;103636.66;4978473;28;20029;-63
2022/01/18 11:04:49;;;;;;;28.23;7.50;;;;;;;17.12;48.79;103639.72;4978781;28;20046;-63
2022/01/18 11:07:17;;;;;;;20.98;8.05;;;;;;;17.20;48.88;103634.66;4978643;28;20105;-63
2022/01/18 11:09:43;;;;;;;21.98;7.10;;;;;;;17.28;48.46;103626.91;4996097;28;20034;-63
2022/01/18 11:12:09;;;;;;;19.83;7.60;;;;;;;17.40;47.98;103626.06;4995836;28;20026;-63
2022/01/18 11:14:38;;;;;;;41.90;14.82;;;;;;;17.52;48.02;103619.81;4995651;28;20029;-63
2022/01/18 11:17:06;;;;;;;28.73;10.02;;;;;;;17.70;47.93;103623.13;4995966;28;20034;-63
2022/01/18 11:19:34;;;;;;;21.08;7.72;;;;;;;17.90;48.23;103618.00;4995788;28;20480;-63
2022/01/18 11:22:06;;;;;;;31.23;9.73;;;;;;;18.18;47.92;103618.75;4995557;28;20023;-63
2022/01/18 11:24:32;;;;;;;18.27;6.60;;;;;;;18.22;47.31;103609.44;4996124;28;20053;-63
2022/01/18 11:26:58;;;;;;;24.98;7.53;;;;;;;18.25;47.59;103615.50;4978042;28;20081;-63
2022/01/18 11:29:25;;;;;;;24.50;9.07;;;;;;;18.26;47.35;103613.63;4995490;28;20026;-63
2022/01/18 11:31:52;;;;;;;21.25;6.45;;;;;;;18.32;47.60;103605.06;4995684;28;20118;-63
2022/01/18 11:34:33;;;;;;;18.35;5.97;;;;;;;18.40;46.85;103616.22;4995503;28;20026;-63
2022/01/18 11:37:14;;;;;;;18.92;6.82;;;;;;;18.52;47.02;103599.94;4977946;28;20018;-63
2022/01/18 11:39:40;;;;;;;17.27;6.57;;;;;;;18.66;47.10;103595.34;4994894;28;20534;-63
2022/01/18 11:42:15;;;;;;;18.08;6.18;;;;;;;19.02;46.40;103596.16;4995339;28;20026;-63
2022/01/18 11:44:40;;;;;;;19.85;6.45;;;;;;;19.36;46.06;103596.28;4995170;28;20026;-63
2022/01/18 11:47:08;;;;;;;16.50;5.72;;;;;;;19.81;45.78;103600.00;4995414;28;20088;-63
2022/01/18 11:49:34;;;;;;;26.67;6.75;;;;;;;20.34;45.29;103602.06;4978142;28;20018;-62
2022/01/18 11:52:06;;;;;;;17.75;6.32;;;;;;;20.84;45.14;103585.13;4994982;28;20022;-63
2022/01/18 11:57:24;;;;;;;16.67;6.32;;;;;;;21.36;44.15;103583.41;4994909;28;20500;-63
2022/01/18 12:00:08;;;;;;;11.25;4.70;;;;;;;21.10;44.29;103582.94;4994956;28;20022;-63
2022/01/18 12:02:41;;;;;;;12.75;4.63;;;;;;;21.19;44.64;103579.41;4994710;28;20027;-63
2022/01/18 12:05:14;;;;;;;17.08;5.00;;;;;;;21.03;45.42;103584.41;4995286;28;20400;-63
2022/01/18 12:07:41;;;;;;;14.50;4.07;;;;;;;20.73;45.07;103576.97;4995089;28;20030;-63
2022/01/18 12:10:08;;;;;;;14.95;4.30;;;;;;;20.46;44.87;103581.13;4995119;28;20036;-63
2022/01/18 12:12:39;;;;;;;18.85;4.43;;;;;;;20.22;44.78;103576.66;4995331;28;20476;-63
2022/01/18 12:15:26;;;;;;;13.98;4.10;;;;;;;19.99;45.22;103572.19;4995103;28;20026;-63
2022/01/18 12:17:55;;;;;;;7.50;3.50;;;;;;;19.80;45.27;103574.66;4994961;28;20424;-63
2022/01/18 12:20:50;;;;;;;10.85;3.67;;;;;;;19.65;45.20;103573.19;4994865;28;20030;-63
2022/01/18 12:23:23;;;;;;;11.50;3.90;;;;;;;19.50;45.01;103574.38;4975414;28;20045;-63
2022/01/18 12:26:02;;;;;;;14.80;3.75;;;;;;;19.42;45.26;103572.25;4977686;28;20034;-63
2022/01/18 12:28:56;;;;;;;19.48;5.22;;;;;;;19.60;44.97;103565.34;4995139;28;20550;-63